createdAt,value
2023-04-18T00:00:52.583Z,45.65
2023-04-18T00:05:55.941Z,45.55
2023-04-18T00:10:59.472Z,44.95
2023-04-18T00:16:04.296Z,45.42
2023-04-18T00:21:08.779Z,46.61
2023-04-18T00:26:12.324Z,46.10
2023-04-18T00:31:17.293Z,46.04
2023-04-18T00:36:20.680Z,46.99
2023-04-18T00:41:27.517Z,46.97
2023-04-18T00:46:32.405Z,46.52
2023-04-18T00:51:36.192Z,47.78
2023-04-18T00:56:39.930Z,47.64
2023-04-18T01:01:45.353Z,48.26
2023-04-18T01:06:48.936Z,48.45
2023-04-18T01:11:52.203Z,48.72
2023-04-18T01:16:57.630Z,48.63
2023-04-18T01:22:00.888Z,49.02
2023-04-18T01:27:06.010Z,48.65
2023-04-18T01:32:09.644Z,49.37
2023-04-18T01:37:12.958Z,49.45
2023-04-18T01:42:17.582Z,49.84
2023-04-18T01:47:20.794Z,49.56
2023-04-18T01:52:24.039Z,48.51
2023-04-18T01:57:29.068Z,48.00
2023-04-18T02:02:32.538Z,47.66
2023-04-18T02:07:36.052Z,47.92
2023-04-18T02:12:40.669Z,48.43
2023-04-18T02:17:43.916Z,48.76
2023-04-18T02:22:47.953Z,49.59
2023-04-18T02:27:52.857Z,50.25
2023-04-18T02:32:58.241Z,50.15
2023-04-18T02:38:01.762Z,50.58
2023-04-18T02:43:06.645Z,52.15
2023-04-18T02:48:10.105Z,51.23
2023-04-18T02:53:13.368Z,52.06
2023-04-18T02:58:18.310Z,52.12
2023-04-18T03:03:21.811Z,53.14
2023-04-18T03:08:25.241Z,52.69
2023-04-18T03:13:29.806Z,53.59
2023-04-18T03:18:33.082Z,52.29
2023-04-18T03:23:36.481Z,52.26
2023-04-18T03:28:41.333Z,52.14
2023-04-18T03:33:45.803Z,51.76
2023-04-18T03:38:49.314Z,51.94
2023-04-18T03:43:54.094Z,51.90
2023-04-18T03:48:57.427Z,51.44
2023-04-18T03:54:00.646Z,51.69
2023-04-18T03:59:05.294Z,51.55
2023-04-18T04:04:09.427Z,51.53
2023-04-18T04:09:12.892Z,50.61
2023-04-18T04:14:17.630Z,50.39
2023-04-18T04:19:21.205Z,50.69
2023-04-18T04:24:24.601Z,50.88
2023-04-18T04:29:29.571Z,51.16
2023-04-18T04:34:34.525Z,51.66
2023-04-18T04:39:37.905Z,51.91
2023-04-18T04:44:43.102Z,52.05
2023-04-18T04:49:46.440Z,51.29
2023-04-18T04:54:49.963Z,50.94
2023-04-18T04:59:54.740Z,50.55
2023-04-18T05:04:58.039Z,50.61
2023-04-18T05:10:01.216Z,50.32
2023-04-18T05:15:07.210Z,50.13
2023-04-18T05:20:11.603Z,49.38
2023-04-18T05:25:15.110Z,48.90
2023-04-18T05:30:19.762Z,49.04
2023-04-18T05:35:23.063Z,48.68
2023-04-18T05:40:27.584Z,48.15
2023-04-18T05:45:32.745Z,47.34
2023-04-18T05:50:36.148Z,47.11
2023-04-18T05:55:41.133Z,46.29
2023-04-18T06:00:45.945Z,45.39
2023-04-18T06:05:49.349Z,44.60
2023-04-18T06:10:52.653Z,43.30
2023-04-18T06:15:57.402Z,42.13
2023-04-18T06:21:00.896Z,41.41
2023-04-18T06:26:04.256Z,40.56
2023-04-18T06:31:09.490Z,40.55
2023-04-18T06:36:12.950Z,39.72
2023-04-18T06:41:16.782Z,39.39
2023-04-18T06:46:22.116Z,39.74
2023-04-18T06:51:25.531Z,38.73
2023-04-18T06:56:29.746Z,35.60
2023-04-18T07:01:34.681Z,33.47
2023-04-18T07:06:38.664Z,33.43
2023-04-18T07:11:42.172Z,33.68
2023-04-18T07:16:47.078Z,34.77
2023-04-18T07:21:50.318Z,34.20
2023-04-18T07:26:55.167Z,33.91
2023-04-18T07:32:00.167Z,33.11
2023-04-18T07:37:03.804Z,31.75
2023-04-18T07:42:07.909Z,29.97
2023-04-18T07:47:14.042Z,28.61
2023-04-18T07:52:17.762Z,25.37
2023-04-18T07:57:21.073Z,23.55
2023-04-18T08:02:25.968Z,20.76
2023-04-18T08:07:29.381Z,20.17
2023-04-18T08:12:32.856Z,18.18
2023-04-18T08:17:39.021Z,16.64
2023-04-18T08:23:01.376Z,16.52
2023-04-18T08:28:06.054Z,15.90
2023-04-18T08:33:11.104Z,14.35
2023-04-18T08:38:14.930Z,13.95
2023-04-18T08:43:18.252Z,13.14
2023-04-18T08:48:23.201Z,13.30
2023-04-18T08:53:26.705Z,12.32
2023-04-18T08:58:32.478Z,12.34
2023-04-18T09:03:40.193Z,11.37
2023-04-18T09:08:44.779Z,11.07
2023-04-18T09:13:48.770Z,10.25
2023-04-18T09:19:14.159Z,9.93
2023-04-18T09:24:21.239Z,9.87
2023-04-18T09:29:42.503Z,9.38
2023-04-18T09:34:48.062Z,9.15
2023-04-18T09:39:51.981Z,10.43
2023-04-18T09:45:05.673Z,12.05
2023-04-18T09:50:12.294Z,15.16
2023-04-18T09:55:17.789Z,15.11
2023-04-18T10:00:26.625Z,14.35
2023-04-18T10:05:34.873Z,16.32
2023-04-18T10:10:39.085Z,17.96
2023-04-18T10:15:44.180Z,19.28
2023-04-18T10:20:49.032Z,20.70
2023-04-18T10:25:52.501Z,21.52
2023-04-18T10:30:57.839Z,22.34
2023-04-18T10:36:06.477Z,23.30
2023-04-18T10:41:31.509Z,23.50
2023-04-18T10:46:35.016Z,24.19
2023-04-18T10:51:39.729Z,24.90
2023-04-18T10:56:56.756Z,25.16
2023-04-18T11:02:06.384Z,25.55
2023-04-18T11:07:11.322Z,25.71
2023-04-18T11:12:14.784Z,26.13
2023-04-18T11:17:19.511Z,26.92
2023-04-18T11:22:24.508Z,27.30
2023-04-18T11:27:28.053Z,27.67
2023-04-18T11:32:31.567Z,27.97
2023-04-18T11:37:36.892Z,28.27
2023-04-18T11:42:42.296Z,28.69
2023-04-18T11:47:47.549Z,28.27
2023-04-18T11:52:54.216Z,28.46
2023-04-18T11:57:58.872Z,28.73
2023-04-18T12:03:04.926Z,28.56
2023-04-18T12:08:11.522Z,28.66
2023-04-18T12:13:15.332Z,28.75
2023-04-18T12:18:20.696Z,29.11
2023-04-18T12:23:35.705Z,29.02
2023-04-18T12:28:39.030Z,28.31
2023-04-18T12:33:42.326Z,28.44
2023-04-18T12:38:49.235Z,28.23
2023-04-18T12:43:52.525Z,28.38
2023-04-18T12:48:57.267Z,28.31
2023-04-18T12:54:02.306Z,27.97
2023-04-18T12:59:05.874Z,27.71
2023-04-18T13:04:12.877Z,26.90
2023-04-18T13:09:18.125Z,27.24
2023-04-18T13:14:21.537Z,27.60
2023-04-18T13:19:24.913Z,27.73
2023-04-18T13:24:29.785Z,27.64
2023-04-18T13:29:33.209Z,27.84
2023-04-18T13:34:41.709Z,27.97
2023-04-18T13:39:46.437Z,27.67
2023-04-18T13:44:50.238Z,27.88
2023-04-18T13:49:53.539Z,28.04
2023-04-18T13:54:58.357Z,28.32
2023-04-18T14:00:01.932Z,28.53
2023-04-18T14:05:08.430Z,28.71
2023-04-18T14:10:13.501Z,28.63
2023-04-18T14:15:16.988Z,28.24
2023-04-18T14:20:20.235Z,28.71
2023-04-18T14:25:24.964Z,28.87
2023-04-18T14:30:28.132Z,28.83
2023-04-18T14:35:32.217Z,29.66
2023-04-18T14:40:37.034Z,30.43
2023-04-18T14:45:40.362Z,30.89
2023-04-18T14:50:43.940Z,31.29
2023-04-18T14:55:48.644Z,32.32
2023-04-18T15:00:52.257Z,32.50
2023-04-18T15:05:55.817Z,32.83
2023-04-18T15:11:01.251Z,33.66
2023-04-18T15:16:04.920Z,33.63
2023-04-18T15:21:08.146Z,34.37
2023-04-18T15:26:12.823Z,35.12
2023-04-18T15:31:16.581Z,35.48
2023-04-18T15:36:20.188Z,35.33
2023-04-18T15:41:24.960Z,35.51
2023-04-18T15:46:28.411Z,36.09
2023-04-18T15:51:31.676Z,36.14
2023-04-18T15:56:37.393Z,36.65
2023-04-18T16:01:40.819Z,36.61
2023-04-18T16:06:44.704Z,37.50
2023-04-18T16:11:49.397Z,37.66
2023-04-18T16:16:53.836Z,37.85
2023-04-18T16:21:57.351Z,38.33
2023-04-18T16:27:02.884Z,38.66
2023-04-18T16:32:08.206Z,38.50
2023-04-18T16:37:11.488Z,38.93
2023-04-18T16:42:16.101Z,39.41
2023-04-18T16:47:20.047Z,39.42
2023-04-18T16:52:23.779Z,39.62
2023-04-18T16:57:28.521Z,39.88
2023-04-18T17:02:32.192Z,39.84
2023-04-18T17:07:35.733Z,40.28
2023-04-18T17:12:40.543Z,40.53
2023-04-18T17:17:43.931Z,41.07
2023-04-18T17:22:47.249Z,40.80
2023-04-18T17:27:51.948Z,41.29
2023-04-18T17:32:55.767Z,41.42
2023-04-18T17:37:59.206Z,41.34
2023-04-18T17:43:04.093Z,41.57
2023-04-18T17:48:09.057Z,42.11
2023-04-18T17:53:13.051Z,41.82
2023-04-18T17:58:17.861Z,42.43
2023-04-18T18:03:21.891Z,42.37
2023-04-18T18:08:25.830Z,42.77
2023-04-18T18:13:30.941Z,42.93
2023-04-18T18:18:34.378Z,42.80
2023-04-18T18:23:38.014Z,43.35
2023-04-18T18:28:42.936Z,43.57
2023-04-18T18:33:46.528Z,43.54
2023-04-18T18:38:49.876Z,43.88
2023-04-18T18:43:54.732Z,44.33
2023-04-18T18:48:58.106Z,44.58
2023-04-18T18:54:01.509Z,44.49
2023-04-18T18:59:06.226Z,45.06
2023-04-18T19:04:09.792Z,45.25
2023-04-18T19:09:13.812Z,45.42
2023-04-18T19:14:18.859Z,45.36
2023-04-18T19:19:22.166Z,45.37
2023-04-18T19:24:25.504Z,45.44
2023-04-18T19:29:32.574Z,45.82
2023-04-18T19:34:36.398Z,45.91
2023-04-18T19:39:39.670Z,46.05
2023-04-18T19:44:44.432Z,46.34
2023-04-18T19:49:47.709Z,46.49
2023-04-18T19:54:51.077Z,46.55
2023-04-18T19:59:55.978Z,46.71
2023-04-18T20:04:59.441Z,46.85
2023-04-18T20:10:04.393Z,46.88
2023-04-18T20:15:10.820Z,47.00
2023-04-18T20:20:14.640Z,46.96
2023-04-18T20:25:18.159Z,47.25
2023-04-18T20:30:24.606Z,47.21
2023-04-18T20:35:29.855Z,47.43
2023-04-18T20:40:33.468Z,47.28
2023-04-18T20:45:38.398Z,47.12
2023-04-18T20:50:44.031Z,47.19
2023-04-18T20:55:47.519Z,46.96
2023-04-18T21:00:52.295Z,47.30
2023-04-18T21:05:55.579Z,47.35
2023-04-18T21:10:58.768Z,47.30
2023-04-18T21:16:05.329Z,47.42
2023-04-18T21:21:09.044Z,47.35
2023-04-18T21:26:13.772Z,47.55
2023-04-18T21:31:19.979Z,47.53
2023-04-18T21:36:24.424Z,47.54
2023-04-18T21:41:28.054Z,47.12
2023-04-18T21:46:32.718Z,47.60
2023-04-18T21:51:36.067Z,47.74
2023-04-18T21:56:39.546Z,47.42
2023-04-18T22:01:44.692Z,47.54
2023-04-18T22:06:48.002Z,47.61
2023-04-18T22:11:51.992Z,47.58
2023-04-18T22:16:58.943Z,47.40
2023-04-18T22:22:02.351Z,47.41
2023-04-18T22:27:05.952Z,47.67
2023-04-18T22:32:10.656Z,47.58
2023-04-18T22:37:13.879Z,47.51
2023-04-18T22:42:17.146Z,47.49
2023-04-18T22:47:22.496Z,47.64
2023-04-18T22:52:26.151Z,47.74
2023-04-18T22:57:29.580Z,47.61
2023-04-18T23:02:34.480Z,47.78
2023-04-18T23:07:37.930Z,47.75
2023-04-18T23:12:41.126Z,47.78
2023-04-18T23:17:45.842Z,47.79
2023-04-18T23:22:51.704Z,47.69
2023-04-18T23:27:55.182Z,47.80
2023-04-18T23:32:59.803Z,47.75
2023-04-18T23:38:03.151Z,47.90
2023-04-18T23:43:06.374Z,47.61
2023-04-18T23:48:11.559Z,47.55
2023-04-18T23:53:14.897Z,48.00
2023-04-18T23:58:18.365Z,48.43
